createdAt,value
2019-01-27T00:06:34.398Z,98898.38
2019-01-27T00:09:23.379Z,98902.72
2019-01-27T00:12:11.035Z,98898.53
2019-01-27T00:14:58.581Z,98895.77
2019-01-27T00:17:49.332Z,98895.52
2019-01-27T00:20:37.080Z,98887.71
2019-01-27T00:23:26.442Z,98872.43
2019-01-27T00:26:14.711Z,98870.28
2019-01-27T00:29:04.145Z,98864.70
2019-01-27T00:31:53.221Z,98849.57
2019-01-27T00:34:41.009Z,98841.89
2019-01-27T00:37:29.701Z,98831.05
2019-01-27T01:14:43.888Z,98774.97
2019-01-27T01:17:32.989Z,98768.38
2019-01-27T01:20:20.956Z,98765.67
2019-01-27T01:26:17.881Z,98758.06
2019-01-27T01:29:05.664Z,98750.63
2019-01-27T01:38:23.310Z,98742.91
2019-01-27T01:41:11.651Z,98746.97
2019-01-27T01:44:00.664Z,98724.92
2019-01-27T01:49:54.684Z,98726.08
2019-01-27T01:52:42.313Z,98720.66
2019-01-27T02:11:06.868Z,98661.09
2019-01-27T02:13:55.738Z,98660.22
2019-01-27T02:20:07.605Z,98640.81
2019-01-27T02:22:55.342Z,98634.08
2019-01-27T02:25:43.289Z,98622.17
2019-01-27T02:28:37.484Z,98610.08
2019-01-27T02:31:25.004Z,98608.72
2019-01-27T02:34:13.081Z,98607.66
2019-01-27T02:37:03.098Z,98598.01
2019-01-27T02:39:55.808Z,98595.55
2019-01-27T02:42:43.733Z,98584.41
2019-01-27T02:45:34.169Z,98583.75
2019-01-27T02:48:24.102Z,98575.20
2019-01-27T02:51:29.452Z,98578.30
2019-01-27T02:54:16.999Z,98579.70
2019-01-27T02:57:04.861Z,98568.48
2019-01-27T02:59:52.878Z,98559.80
2019-01-27T03:02:40.295Z,98549.33
2019-01-27T03:05:43.360Z,98544.01
2019-01-27T03:08:31.140Z,98544.94
2019-01-27T03:24:00.083Z,98519.00
2019-01-27T03:26:48.094Z,98527.27
2019-01-27T03:32:51.791Z,98507.17
2019-01-27T03:35:39.430Z,98505.12
2019-01-27T03:38:27.980Z,98506.05
2019-01-27T04:24:43.193Z,98416.90
2019-01-27T05:20:24.813Z,98299.05
2019-01-27T05:23:12.438Z,98298.58
2019-01-27T05:26:00.076Z,98297.59
2019-01-27T05:38:13.063Z,98282.40
2019-01-27T05:41:04.480Z,98271.84
2019-01-27T05:43:52.042Z,98264.48
2019-01-27T05:56:02.946Z,98250.01
2019-01-27T05:58:50.897Z,98250.84
2019-01-27T06:01:38.767Z,98242.45
2019-01-27T06:04:26.242Z,98243.13
2019-01-27T06:07:14.343Z,98244.70
2019-01-27T06:10:19.393Z,98236.17
2019-01-27T06:13:15.066Z,98215.68
2019-01-27T06:31:48.264Z,98211.94
2019-01-27T06:34:37.459Z,98202.66
2019-01-27T06:37:25.827Z,98198.73
2019-01-27T06:40:17.428Z,98193.55
2019-01-27T07:08:25.818Z,98155.13
2019-01-27T07:24:40.182Z,98134.74
2019-01-27T07:27:31.021Z,98131.41
2019-01-27T07:56:14.651Z,98118.00
2019-01-27T08:02:31.701Z,98122.67
2019-01-27T08:05:24.347Z,98113.39
2019-01-27T08:08:20.718Z,98121.81
2019-01-27T08:11:13.403Z,98109.05
2019-01-27T08:14:19.358Z,98107.86
2019-01-27T08:23:32.340Z,98120.07
2019-01-27T08:26:20.009Z,98114.46
2019-01-27T08:29:17.223Z,98112.98
2019-01-27T08:32:12.604Z,98119.66
2019-01-27T08:35:05.527Z,98113.74
2019-01-27T08:57:07.443Z,98075.72
2019-01-27T09:12:51.277Z,98083.66
2019-01-27T09:15:40.129Z,98083.84
2019-01-27T09:21:53.552Z,98071.55
2019-01-27T09:24:40.863Z,98067.53
2019-01-27T09:27:32.073Z,98065.47
2019-01-27T10:05:31.172Z,98062.09
2019-01-27T10:08:25.759Z,98051.02
2019-01-27T10:11:13.737Z,98059.25
2019-01-27T10:14:05.466Z,98050.39
2019-01-27T10:16:56.366Z,98053.09
2019-01-27T10:19:43.826Z,98048.19
2019-01-27T10:22:40.632Z,98032.83
2019-01-27T10:32:03.327Z,98025.32
2019-01-27T10:47:52.687Z,98005.62
2019-01-27T11:10:22.062Z,97972.41
2019-01-27T11:13:09.546Z,97973.87
2019-01-27T11:19:48.982Z,97969.72
2019-01-27T11:26:00.770Z,97948.45
2019-01-27T11:28:45.797Z,97946.70
2019-01-27T11:34:47.583Z,97937.75
2019-01-27T11:37:35.806Z,97935.27
2019-01-27T12:18:21.927Z,97892.98
2019-01-27T12:21:09.430Z,97891.34
2019-01-27T12:23:57.048Z,97885.73
2019-01-27T12:26:46.029Z,97882.11
2019-01-27T12:29:34.413Z,97878.92
2019-01-27T12:32:23.218Z,97871.20
2019-01-27T12:35:14.785Z,97863.98
2019-01-27T12:38:03.868Z,97858.05
2019-01-27T12:47:07.918Z,97844.61
2019-01-27T12:49:55.445Z,97847.03
2019-01-27T12:52:42.713Z,97842.88
2019-01-27T12:58:43.070Z,97836.27
2019-01-27T13:01:30.504Z,97826.83
2019-01-27T13:04:18.245Z,97830.68
2019-01-27T13:32:15.338Z,97798.25
2019-01-27T13:35:03.650Z,97789.44
2019-01-27T13:37:50.851Z,97788.39
2019-01-27T13:40:38.700Z,97797.52
2019-01-27T13:43:27.819Z,97791.64
2019-01-27T13:46:24.052Z,97792.31
2019-01-27T13:49:12.410Z,97786.49
2019-01-27T13:52:00.633Z,97784.31
2019-01-27T13:54:52.437Z,97778.63
2019-01-27T13:57:39.949Z,97780.98
2019-01-27T14:00:44.770Z,97779.26
2019-01-27T14:03:32.804Z,97779.58
2019-01-27T14:06:21.312Z,97782.69
2019-01-27T14:09:08.773Z,97780.78
2019-01-27T14:24:36.987Z,97783.79
2019-01-27T14:27:24.870Z,97781.20
2019-01-27T14:30:13.266Z,97779.60
2019-01-27T14:33:16.872Z,97781.41
2019-01-27T14:36:04.567Z,97781.58
2019-01-27T14:38:53.137Z,97784.86
2019-01-27T14:44:49.320Z,97782.57
2019-01-27T15:09:39.078Z,97752.83
2019-01-27T15:12:28.880Z,97755.08
2019-01-27T15:15:21.833Z,97750.30
2019-01-27T15:18:10.426Z,97734.89
2019-01-27T15:21:02.726Z,97729.27
2019-01-27T15:23:50.555Z,97722.43
2019-01-27T15:26:47.278Z,97722.33
2019-01-27T15:45:26.606Z,97714.75
2019-01-27T15:48:14.665Z,97712.31
2019-01-27T15:51:03.696Z,97712.92
2019-01-27T15:53:51.839Z,97721.02
2019-01-27T15:56:40.160Z,97731.52
2019-01-27T15:59:32.809Z,97737.16
2019-01-27T16:02:25.231Z,97753.50
2019-01-27T16:05:10.553Z,97756.95
2019-01-27T16:08:01.720Z,97749.81
2019-01-27T16:17:15.390Z,97756.06
2019-01-27T16:20:08.812Z,97753.33
2019-01-27T16:23:15.108Z,97758.61
2019-01-27T16:26:03.333Z,97761.27
2019-01-27T16:28:50.845Z,97759.05
2019-01-27T16:31:43.191Z,97755.08
2019-01-27T16:40:47.443Z,97751.28
2019-01-27T16:46:50.019Z,97753.70
2019-01-27T16:52:44.884Z,97761.89
2019-01-27T16:55:41.781Z,97759.72
2019-01-27T17:01:45.052Z,97755.97
2019-01-27T17:04:35.146Z,97750.88
2019-01-27T17:07:33.656Z,97744.92
2019-01-27T17:10:27.880Z,97750.47
2019-01-27T17:13:16.820Z,97746.68
2019-01-27T17:22:27.159Z,97752.34
2019-01-27T17:25:15.787Z,97745.16
2019-01-27T17:28:08.995Z,97746.32
2019-01-27T17:30:57.283Z,97736.97
2019-01-27T17:39:25.554Z,97745.16
2019-01-27T17:42:13.594Z,97744.21
2019-01-27T17:45:04.720Z,97745.02
2019-01-27T17:48:01.078Z,97744.12
2019-01-27T17:50:47.012Z,97745.96
2019-01-27T17:53:37.748Z,97752.67
2019-01-27T18:15:48.681Z,97741.55
2019-01-27T18:24:55.509Z,97742.07
2019-01-27T18:27:43.574Z,97737.67
2019-01-27T18:30:31.392Z,97742.47
2019-01-27T18:33:19.371Z,97748.78
2019-01-27T18:36:09.971Z,97748.84
2019-01-27T18:38:59.263Z,97753.14
2019-01-27T18:48:11.349Z,97758.89
2019-01-27T18:51:00.008Z,97767.98
2019-01-27T18:53:47.980Z,97765.63
2019-01-27T18:56:46.991Z,97763.20
2019-01-27T18:59:52.153Z,97757.88
2019-01-27T19:02:45.965Z,97757.12
2019-01-27T19:05:40.162Z,97760.83
2019-01-27T19:08:46.537Z,97766.42
2019-01-27T19:11:34.166Z,97763.64
2019-01-27T19:14:25.943Z,97772.98
2019-01-27T19:17:17.913Z,97770.42
2019-01-27T19:20:34.783Z,97768.23
2019-01-27T19:23:27.477Z,97772.21
2019-01-27T19:26:15.252Z,97768.77
2019-01-27T19:29:07.237Z,97770.96
2019-01-27T19:32:03.140Z,97779.23
2019-01-27T19:34:56.890Z,97782.30
2019-01-27T19:41:15.258Z,97789.19
2019-01-27T19:44:27.536Z,97786.09
2019-01-27T19:47:31.649Z,97786.63
2019-01-27T19:50:22.205Z,97786.22
2019-01-27T19:56:54.394Z,97791.33
2019-01-27T19:59:42.397Z,97800.08
2019-01-27T20:02:33.394Z,97796.09
2019-01-27T20:05:34.683Z,97795.27
2019-01-27T20:08:32.633Z,97797.64
2019-01-27T20:11:35.345Z,97794.78
2019-01-27T20:14:26.927Z,97797.23
2019-01-27T20:17:20.397Z,97801.13
2019-01-27T20:20:08.360Z,97803.12
2019-01-27T20:23:00.177Z,97803.83
2019-01-27T20:25:47.681Z,97797.98
2019-01-27T20:28:52.049Z,97797.22
2019-01-27T20:31:39.962Z,97798.60
2019-01-27T20:34:32.471Z,97791.63
2019-01-27T20:37:23.788Z,97791.59
2019-01-27T20:40:13.474Z,97796.72
2019-01-27T20:43:04.377Z,97796.89
2019-01-27T20:45:54.995Z,97795.64
2019-01-27T20:48:59.217Z,97789.04
2019-01-27T20:51:50.993Z,97795.05
2019-01-27T20:54:41.623Z,97795.80
2019-01-27T20:57:32.398Z,97792.13
2019-01-27T21:00:26.102Z,97796.41
2019-01-27T21:03:19.543Z,97788.55
2019-01-27T21:06:07.374Z,97791.23
2019-01-27T21:09:07.327Z,97791.17
2019-01-27T21:12:10.753Z,97795.16
2019-01-27T21:15:03.858Z,97796.05
2019-01-27T21:17:59.103Z,97796.94
2019-01-27T21:20:53.684Z,97799.61
2019-01-27T21:23:37.121Z,97798.44
2019-01-27T21:26:31.013Z,97799.86
2019-01-27T21:29:19.917Z,97797.54
2019-01-27T21:32:09.206Z,97799.13
2019-01-27T21:34:57.623Z,97803.41
2019-01-27T21:37:45.607Z,97808.19
2019-01-27T21:40:34.478Z,97800.03
2019-01-27T21:43:25.646Z,97805.73
2019-01-27T21:46:13.569Z,97798.83
2019-01-27T21:49:11.896Z,97801.81
2019-01-27T21:52:00.148Z,97803.84
2019-01-27T21:54:47.829Z,97800.27
2019-01-27T21:57:35.827Z,97799.63
2019-01-27T22:00:23.216Z,97798.59
2019-01-27T22:03:12.574Z,97807.22
2019-01-27T22:06:00.523Z,97810.14
2019-01-27T22:08:48.402Z,97798.30
2019-01-27T22:11:37.934Z,97806.94
2019-01-27T22:14:26.958Z,97802.53
2019-01-27T22:17:24.725Z,97807.23
2019-01-27T22:20:28.598Z,97810.69
2019-01-27T22:23:17.051Z,97806.28
2019-01-27T22:26:06.335Z,97819.73
2019-01-27T22:28:53.862Z,97810.96
2019-01-27T22:31:41.909Z,97816.91
2019-01-27T22:34:30.556Z,97821.67
2019-01-27T22:37:20.688Z,97823.41
2019-01-27T22:40:10.737Z,97826.38
2019-01-27T22:43:01.559Z,97826.74
2019-01-27T22:45:50.728Z,97829.08
2019-01-27T22:48:39.181Z,97827.67
2019-01-27T22:51:44.424Z,97828.94
2019-01-27T22:54:33.581Z,97830.16
2019-01-27T23:00:36.023Z,97834.33
2019-01-27T23:12:50.218Z,97848.86
2019-01-27T23:18:45.772Z,97856.97
2019-01-27T23:24:49.694Z,97858.75
2019-01-27T23:27:48.334Z,97865.07
2019-01-27T23:30:40.643Z,97869.80
2019-01-27T23:33:30.756Z,97873.22
2019-01-27T23:36:20.377Z,97873.70
2019-01-27T23:39:10.183Z,97883.03
2019-01-27T23:42:07.668Z,97888.67
2019-01-27T23:44:57.251Z,97892.94
2019-01-27T23:47:47.172Z,97895.23
2019-01-27T23:50:35.989Z,97894.48
2019-01-27T23:53:25.873Z,97902.77
2019-01-27T23:56:13.784Z,97903.56
2019-01-27T23:59:01.805Z,97904.52
